Dichtehöhe EDMK:
1110 ft.

Basierend auf dem METAR von EDJA:
2024/04/21 10:50 EDJA 211050Z 34010KT 300V010 4600 -SN SCT002 BKN006 OVC024 01/01 Q1016

Platzhöhe: 2340 ft.
Temperatur (EDJA): 1 °C
QNH (EDJA): 1016 hPa
Differenz zu Standard-Luftdruck: -3 hPa
Druckhöhe: 2250 ft.
ISA-Standard Temperatur: 10.5 °C
Differenz zu ISA-Standard Temp.: -9.5 °C

Angabe ohne Gewähr. Für die Korrektheit der Daten kann keine Garantie übernommen werden.